Time;durP1;ratioP1;P1;durP2;ratioP2;P2;SDS_P1;SDS_P2;PMS_P1;PMS_P2;Temp;Humidity;BMP_temperature;BMP_pressure;BME280_temperature;BME280_humidity;BME280_pressure;Samples;Min_cycle;Max_cycle;Signal;HPM_P1;HPM_P2
2021/12/26 00:00:15;;;;;;;5.30;2.40;;;-6.20;99.90;;;;;;5038648;28;20065;-76
2021/12/26 00:02:40;;;;;;;3.90;2.38;;;-6.10;99.90;;;;;;5069548;28;20096;-75
2021/12/26 00:05:07;;;;;;;3.55;2.35;;;-6.40;99.90;;;;;;5022276;28;20057;-75
2021/12/26 00:07:33;;;;;;;7.35;2.42;;;-6.40;99.90;;;;;;5036767;28;20056;-75
2021/12/26 00:09:59;;;;;;;5.50;2.65;;;-6.40;99.90;;;;;;5037187;28;20049;-75
2021/12/26 00:12:25;;;;;;;5.80;2.65;;;-6.40;99.90;;;;;;5021140;28;20060;-75
2021/12/26 00:14:51;;;;;;;4.05;2.35;;;-6.40;99.90;;;;;;5036018;28;20057;-75
2021/12/26 00:17:17;;;;;;;8.15;6.78;;;-6.00;99.90;;;;;;5038121;28;20060;-75
2021/12/26 00:19:42;;;;;;;5.65;3.55;;;-6.30;99.90;;;;;;5069635;28;20057;-75
2021/12/26 00:22:08;;;;;;;4.28;2.50;;;-6.50;99.90;;;;;;5038188;28;20076;-75
2021/12/26 00:24:35;;;;;;;4.60;2.72;;;-6.40;99.90;;;;;;5035851;28;20056;-75
2021/12/26 00:27:01;;;;;;;4.72;2.50;;;-6.40;99.90;;;;;;5053649;28;20114;-75
2021/12/26 00:29:27;;;;;;;3.33;2.30;;;-6.50;99.90;;;;;;5037167;28;20073;-75
2021/12/26 00:31:53;;;;;;;4.85;2.72;;;-6.50;99.90;;;;;;5035511;28;20081;-75
2021/12/26 00:34:18;;;;;;;3.25;1.85;;;-6.50;99.90;;;;;;5037405;28;20132;-75
2021/12/26 00:36:44;;;;;;;6.35;3.10;;;-6.50;99.90;;;;;;5018887;28;20045;-75
2021/12/26 00:39:10;;;;;;;4.53;2.55;;;-6.60;99.90;;;;;;5071499;28;20052;-75
2021/12/26 00:41:39;;;;;;;4.88;2.30;;;-6.60;99.90;;;;;;5051241;28;20649;-75
2021/12/26 00:44:06;;;;;;;4.28;2.25;;;-6.00;99.90;;;;;;5036618;28;20057;-75
2021/12/26 00:46:32;;;;;;;4.80;2.13;;;-6.60;99.90;;;;;;5036065;28;20046;-75
2021/12/26 00:48:58;;;;;;;4.53;2.22;;;-6.50;99.90;;;;;;5035074;28;20544;-75
2021/12/26 00:51:24;;;;;;;4.32;2.50;;;-6.50;99.90;;;;;;5021270;28;20046;-75
2021/12/26 00:53:50;;;;;;;7.05;2.00;;;-6.50;99.90;;;;;;5035100;28;20103;-75
2021/12/26 00:56:17;;;;;;;5.25;1.85;;;-6.50;99.90;;;;;;5004786;28;20135;-75
2021/12/26 00:58:43;;;;;;;6.38;2.00;;;-6.50;99.90;;;;;;5035306;28;20049;-75
2021/12/26 01:01:09;;;;;;;5.50;2.38;;;-6.50;99.90;;;;;;5070507;28;20045;-75
2021/12/26 01:03:35;;;;;;;3.53;2.30;;;-6.50;99.90;;;;;;5020025;28;20041;-75
2021/12/26 01:06:01;;;;;;;3.85;1.80;;;-6.60;99.90;;;;;;5035715;28;20041;-75
2021/12/26 01:08:30;;;;;;;3.70;2.15;;;-6.60;99.90;;;;;;5053743;28;20050;-75
2021/12/26 01:11:15;;;;;;;7.80;2.10;;;-6.30;99.90;;;;;;5051393;28;20050;-75
2021/12/26 01:13:43;;;;;;;3.63;1.70;;;-7.20;99.90;;;;;;5037502;28;20105;-74
2021/12/26 01:16:11;;;;;;;4.38;2.05;;;-6.70;99.90;;;;;;5035499;28;20057;-74
2021/12/26 01:18:46;;;;;;;3.72;2.00;;;-6.60;99.90;;;;;;5053017;28;20048;-75
2021/12/26 01:21:25;;;;;;;4.60;2.30;;;-6.60;99.90;;;;;;5070196;28;20057;-74
2021/12/26 01:23:59;;;;;;;3.67;2.35;;;-6.40;99.90;;;;;;5018788;28;20053;-75
2021/12/26 01:26:27;;;;;;;4.35;2.05;;;-6.60;99.90;;;;;;5069509;28;20056;-74
2021/12/26 01:28:53;;;;;;;5.45;2.53;;;-6.60;99.90;;;;;;5034679;28;20096;-74
2021/12/26 01:31:20;;;;;;;4.28;1.90;;;-6.60;99.90;;;;;;5035934;28;20057;-75
2021/12/26 01:33:52;;;;;;;6.78;2.38;;;-6.70;99.90;;;;;;5036344;28;20057;-74
2021/12/26 01:36:17;;;;;;;3.67;2.25;;;-6.70;99.90;;;;;;5034251;28;20269;-75
2021/12/26 01:38:44;;;;;;;5.75;1.92;;;-6.70;99.90;;;;;;5020638;28;20076;-75
2021/12/26 01:41:10;;;;;;;5.35;2.20;;;-6.70;99.90;;;;;;5034163;28;20053;-75
2021/12/26 01:43:39;;;;;;;3.40;2.25;;;-6.80;99.90;;;;;;5037291;28;20096;-75
2021/12/26 01:46:05;;;;;;;3.97;1.80;;;-6.80;99.90;;;;;;5019040;28;20041;-74
2021/12/26 01:48:31;;;;;;;4.53;2.17;;;-6.70;99.90;;;;;;5068719;28;20052;-75
2021/12/26 01:50:57;;;;;;;3.08;1.90;;;-6.30;99.90;;;;;;5053355;28;20053;-75
2021/12/26 01:53:25;;;;;;;3.67;1.98;;;-7.00;99.90;;;;;;5034716;28;20045;-75
2021/12/26 01:55:53;;;;;;;4.25;2.22;;;-6.80;99.90;;;;;;5036018;28;20068;-75
2021/12/26 01:58:23;;;;;;;5.50;1.92;;;-6.80;99.90;;;;;;5034169;28;20061;-75
2021/12/26 02:01:01;;;;;;;4.80;1.80;;;-6.80;99.90;;;;;;5036511;28;20073;-74
2021/12/26 02:03:28;;;;;;;2.85;1.60;;;-6.80;99.90;;;;;;5034802;28;20506;-75
2021/12/26 02:05:54;;;;;;;4.53;2.08;;;-6.90;99.90;;;;;;5034318;28;20098;-75
2021/12/26 02:08:20;;;;;;;2.95;1.80;;;-6.80;99.90;;;;;;5035923;28;20050;-75
2021/12/26 02:10:46;;;;;;;4.47;2.25;;;-6.90;99.90;;;;;;5034863;28;20057;-75
2021/12/26 02:13:13;;;;;;;4.03;1.98;;;-7.00;99.90;;;;;;5052314;28;20088;-74
2021/12/26 02:15:38;;;;;;;4.75;2.22;;;-6.90;99.90;;;;;;5033612;28;20057;-74
2021/12/26 02:18:06;;;;;;;2.70;1.90;;;-7.00;99.90;;;;;;5020177;28;20046;-74
2021/12/26 02:23:16;;;;;;;7.13;2.05;;;-7.00;99.90;;;;;;5067078;28;20053;-74
2021/12/26 02:28:12;;;;;;;3.50;2.13;;;-7.00;99.90;;;;;;5065958;28;20584;-74
2021/12/26 02:30:38;;;;;;;5.85;1.88;;;-7.20;99.90;;;;;;5035825;28;20048;-74
2021/12/26 02:33:07;;;;;;;3.88;1.77;;;-7.00;99.90;;;;;;5034055;28;20109;-74
2021/12/26 02:35:34;;;;;;;6.60;2.10;;;-7.00;99.90;;;;;;5036197;28;20085;-74
2021/12/26 02:38:01;;;;;;;4.45;2.00;;;-7.00;99.90;;;;;;5035197;28;20045;-74
2021/12/26 02:40:27;;;;;;;4.70;2.00;;;-7.00;99.90;;;;;;5050724;28;20159;-74
2021/12/26 02:42:53;;;;;;;3.95;2.10;;;-7.00;99.90;;;;;;5035024;28;20085;-74
2021/12/26 02:45:18;;;;;;;3.65;1.95;;;-6.90;99.90;;;;;;5032964;28;20048;-74
2021/12/26 02:47:47;;;;;;;4.85;2.47;;;-6.90;99.90;;;;;;5039171;28;20072;-74
2021/12/26 02:50:17;;;;;;;6.20;3.67;;;-6.90;99.90;;;;;;5037138;28;20052;-74
2021/12/26 02:52:44;;;;;;;5.25;2.53;;;-6.90;99.90;;;;;;5038684;28;20045;-74
2021/12/26 02:55:11;;;;;;;3.30;2.05;;;-6.90;99.90;;;;;;5054780;28;20053;-74
2021/12/26 02:57:37;;;;;;;4.32;2.13;;;-6.00;99.90;;;;;;5020550;28;20057;-74
2021/12/26 03:00:10;;;;;;;5.18;2.00;;;-7.00;99.90;;;;;;5038966;28;20816;-74
2021/12/26 03:02:40;;;;;;;4.43;2.13;;;-7.00;99.90;;;;;;5036261;28;20084;-74
2021/12/26 03:05:06;;;;;;;4.68;2.15;;;-7.00;99.90;;;;;;5039586;28;20125;-74
2021/12/26 03:07:32;;;;;;;3.50;2.25;;;-7.00;99.90;;;;;;5037906;28;20076;-74
2021/12/26 03:10:00;;;;;;;4.20;2.30;;;-6.40;99.90;;;;;;5038776;28;20053;-74
2021/12/26 03:12:28;;;;;;;5.50;2.15;;;-7.00;99.90;;;;;;5056174;28;20092;-74
2021/12/26 03:14:54;;;;;;;4.15;2.00;;;-7.10;99.90;;;;;;5037033;28;20093;-74
2021/12/26 03:17:20;;;;;;;4.03;2.08;;;-7.10;99.90;;;;;;5039405;28;20077;-74
2021/12/26 03:19:46;;;;;;;3.10;2.40;;;-7.10;99.90;;;;;;5069966;28;20052;-74
2021/12/26 03:22:12;;;;;;;4.60;2.15;;;-7.10;99.90;;;;;;5039467;28;20053;-73
2021/12/26 03:24:39;;;;;;;5.57;2.53;;;-7.20;99.90;;;;;;5037806;28;20052;-73
2021/12/26 03:27:05;;;;;;;3.92;2.20;;;-6.70;99.90;;;;;;5037519;28;20056;-74
2021/12/26 03:29:32;;;;;;;7.43;2.33;;;-7.10;99.90;;;;;;5038508;28;20045;-73
2021/12/26 03:31:58;;;;;;;5.90;3.20;;;-7.20;99.90;;;;;;5036902;28;20041;-73
2021/12/26 03:34:24;;;;;;;4.43;2.28;;;-7.10;99.90;;;;;;5039005;28;20056;-73
2021/12/26 03:36:52;;;;;;;5.85;2.40;;;-7.40;99.90;;;;;;5036417;28;20053;-74
2021/12/26 03:39:19;;;;;;;4.22;2.58;;;-7.10;99.90;;;;;;5039230;28;20171;-73
2021/12/26 03:41:46;;;;;;;4.78;2.30;;;-7.10;99.90;;;;;;5070255;28;20041;-73
2021/12/26 03:44:12;;;;;;;4.25;2.05;;;-7.10;99.90;;;;;;5054426;28;20049;-73
2021/12/26 03:46:38;;;;;;;4.10;2.30;;;-7.10;99.90;;;;;;5021845;28;20085;-73
2021/12/26 03:49:05;;;;;;;4.25;2.60;;;-7.20;99.90;;;;;;5003616;28;20060;-74
2021/12/26 03:51:33;;;;;;;4.13;2.17;;;-7.20;99.90;;;;;;5038798;28;20051;-73
2021/12/26 03:54:00;;;;;;;5.28;2.42;;;-7.20;99.90;;;;;;5069483;28;20046;-73
2021/12/26 03:56:27;;;;;;;5.40;2.50;;;-7.20;99.90;;;;;;5038466;28;20076;-73
2021/12/26 03:58:53;;;;;;;4.25;2.40;;;-7.20;99.90;;;;;;5036803;28;20378;-74
2021/12/26 04:01:18;;;;;;;6.57;2.83;;;-7.10;99.90;;;;;;5021148;28;20060;-73
2021/12/26 04:03:47;;;;;;;3.72;2.10;;;-7.20;99.90;;;;;;5038370;28;20073;-73
2021/12/26 04:06:12;;;;;;;6.95;2.50;;;-7.20;99.90;;;;;;5036472;28;20045;-73
2021/12/26 04:08:38;;;;;;;3.55;2.20;;;-7.20;99.90;;;;;;5055511;28;20816;-73
2021/12/26 04:11:04;;;;;;;4.80;2.95;;;-7.20;99.90;;;;;;5035913;28;20045;-74
2021/12/26 04:13:30;;;;;;;4.18;2.30;;;-7.20;99.90;;;;;;5055535;28;20076;-74
2021/12/26 04:15:56;;;;;;;4.32;2.63;;;-7.30;99.90;;;;;;5020088;28;20405;-74
2021/12/26 04:18:22;;;;;;;6.30;2.60;;;-7.20;99.90;;;;;;5037602;28;20045;-73
2021/12/26 04:20:47;;;;;;;5.00;2.40;;;-7.30;99.90;;;;;;5037323;28;20148;-73
2021/12/26 04:23:14;;;;;;;7.07;2.17;;;-7.20;99.90;;;;;;5036271;28;20037;-74
2021/12/26 04:25:41;;;;;;;3.72;2.30;;;-7.30;99.90;;;;;;5037519;28;20049;-74
2021/12/26 04:28:08;;;;;;;7.50;2.88;;;;;;;;;;5035179;28;20510;-74
2021/12/26 04:30:34;;;;;;;6.55;2.45;;;-7.30;99.90;;;;;;5039868;28;20451;-74
2021/12/26 04:33:01;;;;;;;4.35;2.30;;;-7.20;99.90;;;;;;5035870;28;20033;-74
2021/12/26 04:35:27;;;;;;;7.43;2.33;;;-7.40;99.90;;;;;;5037510;28;20061;-73
2021/12/26 04:37:53;;;;;;;4.28;2.40;;;-7.30;99.90;;;;;;5038849;28;20056;-74
2021/12/26 04:40:19;;;;;;;3.80;2.47;;;-7.30;99.90;;;;;;5069719;28;20414;-73
2021/12/26 04:42:46;;;;;;;4.68;2.50;;;-7.40;99.90;;;;;;5037844;28;20045;-73
2021/12/26 04:45:13;;;;;;;3.60;2.50;;;-7.40;99.90;;;;;;5035465;28;20691;-73
2021/12/26 04:47:39;;;;;;;5.90;2.85;;;-7.40;99.90;;;;;;5054289;28;20088;-73
2021/12/26 04:50:11;;;;;;;4.25;2.55;;;-7.40;99.90;;;;;;5035273;28;20060;-73
2021/12/26 04:52:39;;;;;;;6.18;2.50;;;-7.40;99.90;;;;;;5037498;28;20112;-73
2021/12/26 04:55:05;;;;;;;6.05;2.72;;;-7.40;99.90;;;;;;5037035;28;20056;-73
2021/12/26 04:57:32;;;;;;;3.58;2.33;;;-7.30;99.90;;;;;;5051374;28;20140;-73
2021/12/26 04:59:59;;;;;;;5.65;2.42;;;-7.10;99.90;;;;;;5037170;28;20081;-73
2021/12/26 05:02:27;;;;;;;5.07;2.83;;;-7.40;99.90;;;;;;5018659;28;20049;-74
2021/12/26 05:04:54;;;;;;;3.33;2.50;;;-7.40;99.90;;;;;;5037471;28;20162;-74
2021/12/26 05:07:20;;;;;;;4.80;2.80;;;-7.40;99.90;;;;;;5053000;28;20512;-74
2021/12/26 05:09:46;;;;;;;8.32;3.08;;;-7.40;99.90;;;;;;5035695;28;20041;-73
2021/12/26 05:12:12;;;;;;;5.82;2.65;;;-7.40;99.90;;;;;;5036988;28;20053;-72
2021/12/26 05:14:38;;;;;;;6.07;3.33;;;-7.40;99.90;;;;;;5035692;28;20052;-74
2021/12/26 05:17:04;;;;;;;5.75;2.60;;;-7.40;99.90;;;;;;5037061;28;20068;-73
2021/12/26 05:19:29;;;;;;;4.45;2.80;;;-7.40;99.90;;;;;;5034841;28;20037;-74
2021/12/26 05:21:55;;;;;;;8.43;2.63;;;-7.30;99.90;;;;;;5037209;28;20050;-73
2021/12/26 05:24:21;;;;;;;4.32;2.60;;;-7.30;99.90;;;;;;5018555;28;20072;-73
2021/12/26 05:26:46;;;;;;;7.13;2.42;;;-7.00;99.90;;;;;;5036505;28;20054;-73
2021/12/26 05:29:12;;;;;;;4.78;2.40;;;-7.30;99.90;;;;;;5036251;28;20059;-73
2021/12/26 05:31:38;;;;;;;3.85;2.20;;;-7.20;99.90;;;;;;5035253;28;20101;-73
2021/12/26 05:34:03;;;;;;;4.20;2.50;;;-7.20;99.90;;;;;;5036974;28;20050;-73
2021/12/26 05:36:29;;;;;;;4.47;2.85;;;-7.20;99.90;;;;;;5034394;28;20537;-73
2021/12/26 05:38:56;;;;;;;3.50;2.55;;;-7.20;99.90;;;;;;5037430;28;20049;-73
2021/12/26 05:41:22;;;;;;;4.43;2.88;;;-7.20;99.90;;;;;;5018411;28;20049;-73
2021/12/26 05:43:47;;;;;;;4.85;2.40;;;-7.20;99.90;;;;;;5038465;28;20470;-73
2021/12/26 05:46:13;;;;;;;5.75;2.97;;;-7.10;99.90;;;;;;5036008;28;20037;-73
2021/12/26 05:48:39;;;;;;;5.32;2.67;;;-7.10;99.90;;;;;;5035469;28;20427;-73
2021/12/26 05:51:04;;;;;;;4.82;2.80;;;-7.10;99.90;;;;;;5020586;28;20047;-73
2021/12/26 05:53:30;;;;;;;7.60;5.07;;;-7.30;99.90;;;;;;5017477;28;20042;-73
2021/12/26 05:55:56;;;;;;;4.57;3.00;;;-7.20;99.90;;;;;;5035566;28;20049;-73
2021/12/26 05:58:22;;;;;;;5.45;2.72;;;-7.10;99.90;;;;;;5050602;28;20052;-73
2021/12/26 06:00:47;;;;;;;6.13;2.90;;;-7.00;99.90;;;;;;5037205;28;20048;-73
2021/12/26 06:03:13;;;;;;;5.53;2.38;;;-7.10;99.90;;;;;;5018846;28;20037;-73
2021/12/26 06:05:39;;;;;;;6.38;2.90;;;-7.10;99.90;;;;;;5035756;28;20045;-73
2021/12/26 06:08:05;;;;;;;5.45;2.67;;;-7.10;99.90;;;;;;5036595;28;20050;-73
2021/12/26 06:10:30;;;;;;;6.30;2.75;;;-7.10;99.90;;;;;;5034639;28;20060;-73
2021/12/26 06:12:56;;;;;;;4.70;2.42;;;-6.20;99.90;;;;;;5036442;28;20056;-73
2021/12/26 06:15:22;;;;;;;3.90;2.20;;;-7.00;99.90;;;;;;5033927;28;20112;-73
2021/12/26 06:17:48;;;;;;;3.78;2.55;;;-7.10;99.90;;;;;;5070204;28;20513;-73
2021/12/26 06:20:14;;;;;;;8.57;3.33;;;-7.00;99.90;;;;;;5034919;28;20076;-73
2021/12/26 06:22:44;;;;;;;5.78;2.58;;;-6.70;99.90;;;;;;5056026;28;20041;-73
2021/12/26 06:25:11;;;;;;;4.70;2.70;;;-7.00;99.90;;;;;;5039939;28;20045;-74
2021/12/26 06:27:37;;;;;;;5.15;2.53;;;-6.90;99.90;;;;;;5021181;28;20565;-74
2021/12/26 06:30:05;;;;;;;4.65;2.70;;;-7.00;99.90;;;;;;5023763;28;20429;-74
2021/12/26 06:32:31;;;;;;;5.25;3.00;;;-7.00;99.90;;;;;;5037551;28;20060;-73
2021/12/26 06:34:56;;;;;;;6.10;2.70;;;-7.10;99.90;;;;;;5023940;28;20077;-73
2021/12/26 06:37:22;;;;;;;5.03;2.40;;;-7.10;99.90;;;;;;5038653;28;20038;-74
2021/12/26 06:39:48;;;;;;;6.53;2.92;;;-7.10;99.90;;;;;;5023051;28;20053;-74
2021/12/26 06:42:13;;;;;;;7.63;3.28;;;-7.10;99.90;;;;;;5056559;28;20163;-73
2021/12/26 06:44:40;;;;;;;5.65;3.33;;;-7.10;99.90;;;;;;5022059;28;20073;-73
2021/12/26 06:47:07;;;;;;;4.00;2.85;;;-7.00;99.90;;;;;;5056355;28;20567;-73
2021/12/26 06:49:32;;;;;;;5.47;2.70;;;-7.10;99.90;;;;;;5037436;28;20075;-73
2021/12/26 06:51:58;;;;;;;4.72;2.45;;;-7.10;99.90;;;;;;5039837;28;20033;-73
2021/12/26 06:54:24;;;;;;;5.85;2.95;;;-7.00;99.90;;;;;;5037932;28;20080;-74
2021/12/26 06:56:50;;;;;;;7.10;3.03;;;-7.10;99.90;;;;;;5038895;28;20604;-74
2021/12/26 06:59:16;;;;;;;6.10;2.97;;;-7.00;99.90;;;;;;5039585;28;20068;-73
2021/12/26 07:01:42;;;;;;;7.13;3.30;;;-7.00;99.90;;;;;;5039157;28;20045;-73
2021/12/26 07:04:08;;;;;;;7.15;3.53;;;-7.00;99.90;;;;;;5073141;28;20053;-73
2021/12/26 07:06:34;;;;;;;4.57;2.85;;;-7.20;99.90;;;;;;5037185;28;20075;-74
2021/12/26 07:08:59;;;;;;;5.50;2.83;;;-7.00;99.90;;;;;;5039863;28;20444;-74
2021/12/26 07:11:25;;;;;;;5.13;3.20;;;-7.00;99.90;;;;;;5021053;28;20047;-73
2021/12/26 07:13:51;;;;;;;7.38;3.22;;;-7.00;99.90;;;;;;5055646;28;20136;-73
2021/12/26 07:16:17;;;;;;;7.78;3.30;;;-7.00;99.90;;;;;;5071852;28;20060;-74
2021/12/26 07:18:43;;;;;;;5.00;3.38;;;-7.00;99.90;;;;;;5037469;28;20049;-73
2021/12/26 07:21:08;;;;;;;5.80;3.50;;;-7.00;99.90;;;;;;5039142;28;20049;-74
2021/12/26 07:23:34;;;;;;;7.15;3.25;;;-7.00;99.90;;;;;;5004323;28;20041;-73
2021/12/26 07:26:00;;;;;;;6.80;3.95;;;-7.00;99.90;;;;;;5039081;28;20045;-73
2021/12/26 07:28:26;;;;;;;8.27;3.25;;;-6.90;99.90;;;;;;5036035;28;20141;-73
2021/12/26 07:30:52;;;;;;;7.35;3.40;;;-6.20;99.90;;;;;;5038731;28;20053;-73
2021/12/26 07:33:17;;;;;;;7.32;3.38;;;-6.90;99.90;;;;;;5036752;28;20068;-73
2021/12/26 07:35:43;;;;;;;6.72;3.80;;;-6.90;99.90;;;;;;5037936;28;20053;-73
2021/12/26 07:38:09;;;;;;;7.18;3.22;;;-6.90;99.90;;;;;;5022352;28;20037;-74
2021/12/26 07:40:34;;;;;;;7.10;4.07;;;-6.90;99.90;;;;;;5037159;28;20060;-74
2021/12/26 07:43:00;;;;;;;9.90;4.13;;;-6.90;99.90;;;;;;5022779;28;20053;-73
2021/12/26 07:45:26;;;;;;;6.05;3.65;;;-7.20;99.90;;;;;;5036694;28;20061;-73
2021/12/26 07:47:52;;;;;;;5.03;3.05;;;-6.90;99.90;;;;;;5038942;28;20052;-73
2021/12/26 07:50:17;;;;;;;8.98;3.83;;;-6.90;99.90;;;;;;5054232;28;20048;-73
2021/12/26 07:52:45;;;;;;;9.77;4.20;;;-6.90;99.90;;;;;;5038307;28;20072;-74
2021/12/26 07:55:13;;;;;;;7.57;3.92;;;-6.80;99.90;;;;;;5055307;28;20061;-73
2021/12/26 07:57:40;;;;;;;9.27;4.53;;;-6.80;99.90;;;;;;5019980;28;20080;-73
2021/12/26 08:00:07;;;;;;;7.15;3.95;;;-6.80;99.90;;;;;;5072061;28;20049;-73
2021/12/26 08:02:33;;;;;;;7.78;4.03;;;-6.80;99.90;;;;;;5036042;28;20056;-73
2021/12/26 08:04:59;;;;;;;5.18;3.88;;;-6.60;99.90;;;;;;5038789;28;20041;-73
2021/12/26 08:07:25;;;;;;;7.55;4.35;;;-6.80;99.90;;;;;;5036703;28;20092;-73
2021/12/26 08:09:50;;;;;;;5.60;4.28;;;-6.70;99.90;;;;;;5036970;28;20057;-73
2021/12/26 08:12:16;;;;;;;5.78;3.72;;;-6.70;99.90;;;;;;5037786;28;20086;-73
2021/12/26 08:14:42;;;;;;;8.30;4.40;;;-6.60;99.90;;;;;;5036244;28;20049;-73
2021/12/26 08:17:08;;;;;;;9.93;4.55;;;-6.60;99.90;;;;;;5038103;28;20029;-73
2021/12/26 08:19:33;;;;;;;8.20;4.28;;;-6.50;99.90;;;;;;5035470;28;20065;-73
2021/12/26 08:21:59;;;;;;;8.30;5.03;;;-6.00;99.90;;;;;;5038710;28;20045;-73
2021/12/26 08:24:26;;;;;;;8.40;5.22;;;-6.40;99.90;;;;;;5020170;28;20089;-73
2021/12/26 08:26:54;;;;;;;7.35;4.57;;;-6.40;99.90;;;;;;5020726;28;20045;-73
2021/12/26 08:29:23;;;;;;;9.00;4.38;;;-6.30;99.90;;;;;;5071262;28;20592;-73
2021/12/26 08:31:55;;;;;;;7.18;4.07;;;-6.70;99.90;;;;;;5036268;28;20038;-72
2021/12/26 08:34:22;;;;;;;9.65;4.15;;;-5.30;99.90;;;;;;5038453;28;20057;-73
2021/12/26 08:37:02;;;;;;;9.55;4.97;;;-6.10;99.90;;;;;;5019182;28;20050;-73
2021/12/26 08:39:29;;;;;;;9.50;4.20;;;-6.10;99.90;;;;;;5031106;28;20045;-73
2021/12/26 08:41:55;;;;;;;8.43;4.50;;;-6.00;99.90;;;;;;5067179;28;20470;-73
2021/12/26 08:44:22;;;;;;;9.45;4.50;;;-5.90;99.90;;;;;;5051892;28;20038;-73
2021/12/26 08:46:48;;;;;;;9.60;4.53;;;-5.60;99.90;;;;;;5036748;28;20045;-73
2021/12/26 08:49:15;;;;;;;9.43;4.25;;;-5.60;99.90;;;;;;5034952;28;20058;-73
2021/12/26 08:51:41;;;;;;;6.63;3.95;;;-5.80;99.90;;;;;;5037759;28;20053;-73
2021/12/26 08:54:07;;;;;;;6.43;4.07;;;-5.70;99.90;;;;;;5035158;28;20145;-73
2021/12/26 08:56:33;;;;;;;7.53;4.35;;;-5.60;99.90;;;;;;5036545;28;20545;-73
2021/12/26 08:58:59;;;;;;;8.45;4.45;;;-5.50;99.90;;;;;;5035788;28;20048;-73
2021/12/26 09:01:24;;;;;;;7.72;4.13;;;-5.30;99.90;;;;;;5035833;28;20049;-73
2021/12/26 09:03:50;;;;;;;9.30;4.55;;;-5.50;99.90;;;;;;5037650;28;20049;-73
2021/12/26 09:06:16;;;;;;;8.98;4.13;;;-5.40;99.90;;;;;;5051861;28;20080;-73
2021/12/26 09:08:42;;;;;;;7.95;4.53;;;-5.40;99.90;;;;;;5020735;28;20053;-73
2021/12/26 09:11:08;;;;;;;5.68;4.10;;;-5.30;99.90;;;;;;5034525;28;20108;-73
2021/12/26 09:13:33;;;;;;;10.65;4.78;;;-5.30;99.90;;;;;;5020999;28;20093;-73
2021/12/26 09:15:59;;;;;;;7.72;4.57;;;-4.90;99.90;;;;;;5019447;28;20059;-73
2021/12/26 09:18:25;;;;;;;6.55;4.35;;;-4.70;99.90;;;;;;5019730;28;20073;-73
2021/12/26 09:20:51;;;;;;;8.52;4.55;;;-5.00;99.90;;;;;;5036440;28;20053;-73
2021/12/26 09:23:17;;;;;;;7.25;4.43;;;-5.00;99.90;;;;;;5067778;28;20049;-71
2021/12/26 09:25:43;;;;;;;6.75;4.30;;;-4.90;99.90;;;;;;5036474;28;20060;-70
2021/12/26 09:28:09;;;;;;;7.15;4.45;;;-4.80;99.90;;;;;;5067883;28;20049;-71
2021/12/26 09:30:36;;;;;;;6.30;4.32;;;-4.70;99.90;;;;;;5036001;28;20049;-71
2021/12/26 09:33:02;;;;;;;8.57;4.93;;;-4.60;99.90;;;;;;5052145;28;20049;-71
2021/12/26 09:35:28;;;;;;;10.05;4.93;;;-3.80;99.90;;;;;;5036515;28;20079;-70
2021/12/26 09:37:53;;;;;;;8.15;4.57;;;-4.10;99.90;;;;;;5053223;28;20089;-71
2021/12/26 09:40:19;;;;;;;6.97;4.18;;;-4.20;99.90;;;;;;5018205;28;20052;-71
2021/12/26 09:42:47;;;;;;;7.22;4.65;;;-4.30;99.90;;;;;;5037859;28;20453;-71
2021/12/26 09:45:15;;;;;;;7.35;4.47;;;-4.10;99.90;;;;;;5068146;28;20052;-71
2021/12/26 09:47:42;;;;;;;7.78;4.00;;;-4.40;99.90;;;;;;5038630;28;20061;-71
2021/12/26 09:50:11;;;;;;;8.20;4.47;;;-4.00;99.90;;;;;;5034492;28;20049;-71
2021/12/26 09:52:41;;;;;;;10.55;4.30;;;-4.00;99.90;;;;;;5037403;28;20383;-71
2021/12/26 09:55:07;;;;;;;7.68;4.82;;;-3.90;99.90;;;;;;5020209;28;20060;-71
2021/12/26 09:57:32;;;;;;;6.45;3.97;;;-3.70;99.90;;;;;;5037870;28;20046;-71
2021/12/26 09:59:58;;;;;;;7.05;4.38;;;-3.20;99.90;;;;;;5040114;28;20112;-71
2021/12/26 10:02:24;;;;;;;7.72;4.25;;;-3.50;99.90;;;;;;5037736;28;20056;-72
2021/12/26 10:04:51;;;;;;;6.97;4.32;;;-3.40;99.90;;;;;;5042536;28;20052;-72
2021/12/26 10:07:19;;;;;;;7.32;4.03;;;-3.20;99.90;;;;;;5022412;28;20132;-71
2021/12/26 10:09:51;;;;;;;6.82;4.18;;;-2.80;99.90;;;;;;5039356;28;20209;-72
2021/12/26 10:12:20;;;;;;;6.70;4.28;;;-2.70;99.90;;;;;;5039548;28;20045;-71
2021/12/26 10:14:51;;;;;;;6.95;4.38;;;-2.30;99.90;;;;;;5053162;28;20037;-71
2021/12/26 10:17:23;;;;;;;6.55;4.35;;;-1.40;99.90;;;;;;5040436;28;20040;-72
2021/12/26 10:19:51;;;;;;;8.10;4.47;;;-1.30;99.90;;;;;;5036834;28;20057;-72
2021/12/26 10:22:25;;;;;;;6.80;4.53;;;-0.70;99.90;;;;;;5036396;28;20060;-72
2021/12/26 10:24:52;;;;;;;7.03;4.47;;;-0.20;99.90;;;;;;5041037;28;20125;-72
2021/12/26 10:27:29;;;;;;;7.15;4.05;;;1.00;99.90;;;;;;5021449;28;20062;-72
2021/12/26 10:29:56;;;;;;;7.47;4.15;;;0.80;99.90;;;;;;5031361;28;20154;-72
2021/12/26 10:32:28;;;;;;;6.97;4.10;;;1.10;99.90;;;;;;5037047;28;20041;-72
2021/12/26 10:35:00;;;;;;;6.85;4.15;;;1.40;99.90;;;;;;5040439;28;20113;-71
2021/12/26 10:37:28;;;;;;;5.57;3.92;;;1.70;99.90;;;;;;5038434;28;20060;-72
2021/12/26 10:40:04;;;;;;;9.40;4.95;;;2.20;99.90;;;;;;5054762;28;20041;-72
2021/12/26 10:42:32;;;;;;;6.07;3.67;;;2.50;99.90;;;;;;5041274;28;20522;-71
2021/12/26 10:45:16;;;;;;;7.25;4.10;;;2.70;99.90;;;;;;5038977;28;20080;-71
2021/12/26 10:47:50;;;;;;;6.65;4.25;;;2.90;99.90;;;;;;5041594;28;20509;-71
2021/12/26 10:50:19;;;;;;;6.97;4.00;;;3.10;99.90;;;;;;5039622;28;20038;-72
2021/12/26 10:52:52;;;;;;;8.70;4.60;;;3.60;99.90;;;;;;5022056;28;20125;-72
2021/12/26 10:55:26;;;;;;;5.20;4.00;;;3.60;99.90;;;;;;5040804;28;20565;-71
2021/12/26 10:57:52;;;;;;;6.65;4.18;;;3.70;99.90;;;;;;5021079;28;20045;-72
2021/12/26 11:00:32;;;;;;;6.85;4.00;;;3.70;99.90;;;;;;5039260;28;20053;-72
2021/12/26 11:03:17;;;;;;;6.90;4.05;;;3.40;99.90;;;;;;5071398;28;20080;-72
2021/12/26 11:05:45;;;;;;;6.47;3.97;;;2.70;99.90;;;;;;5038476;28;20053;-72
2021/12/26 11:08:35;;;;;;;7.50;4.50;;;2.30;99.90;;;;;;5038585;28;20053;-72
2021/12/26 11:11:16;;;;;;;6.30;4.40;;;1.90;99.90;;;;;;5069083;28;20053;-71
2021/12/26 11:13:42;;;;;;;6.88;4.05;;;1.60;99.90;;;;;;5039954;28;20219;-72
2021/12/26 11:16:09;;;;;;;6.45;4.55;;;1.10;99.90;;;;;;5038131;28;20651;-71
2021/12/26 11:18:36;;;;;;;7.57;4.20;;;0.60;99.90;;;;;;5020984;28;20088;-71
2021/12/26 11:21:13;;;;;;;8.90;5.03;;;0.30;99.90;;;;;;5040036;28;20144;-72
2021/12/26 11:23:39;;;;;;;;;;;0.20;99.90;;;;;;5037481;28;20038;-72
2021/12/26 11:26:08;;;;;;;6.60;4.43;;;0.10;99.90;;;;;;5040724;28;19925;-72
2021/12/26 11:28:37;;;;;;;7.40;4.72;;;0.00;99.90;;;;;;5036812;28;20057;-72
2021/12/26 11:31:15;;;;;;;7.10;4.57;;;-0.30;99.90;;;;;;5071468;28;20049;-72
2021/12/26 11:33:41;;;;;;;7.13;4.57;;;-0.20;99.90;;;;;;5065866;28;20056;-72
2021/12/26 11:36:10;;;;;;;7.88;4.15;;;-0.10;99.90;;;;;;5037113;28;20046;-72
2021/12/26 11:38:37;;;;;;;6.63;4.28;;;-0.30;99.90;;;;;;5040404;28;20045;-73
2021/12/26 11:41:12;;;;;;;8.38;4.22;;;-0.30;99.90;;;;;;5019855;28;20061;-73
2021/12/26 11:43:59;;;;;;;7.17;4.20;;;-0.40;99.90;;;;;;5072335;28;20049;-73
2021/12/26 11:47:03;;;;;;;6.60;4.43;;;-0.50;99.90;;;;;;5040023;28;20108;-73
2021/12/26 11:50:16;;;;;;;6.57;4.40;;;-0.60;99.90;;;;;;5069396;28;20052;-73
2021/12/26 11:53:20;;;;;;;7.03;4.20;;;-0.70;99.90;;;;;;5039006;28;20053;-73
2021/12/26 11:55:55;;;;;;;7.90;4.30;;;-0.60;99.90;;;;;;5034877;28;20049;-72
2021/12/26 11:58:48;;;;;;;8.80;4.22;;;-0.70;99.90;;;;;;5020081;28;20048;-72
2021/12/26 12:01:19;;;;;;;7.50;4.95;;;-0.80;99.90;;;;;;5038575;28;20045;-73
2021/12/26 12:03:44;;;;;;;8.15;4.22;;;-0.90;99.90;;;;;;5071557;28;20052;-73
2021/12/26 12:06:25;;;;;;;7.45;4.40;;;-1.10;99.90;;;;;;5036702;28;20049;-73
2021/12/26 12:08:50;;;;;;;6.75;4.28;;;0.20;99.90;;;;;;5038539;28;20049;-74
2021/12/26 12:11:16;;;;;;;7.35;4.18;;;-1.00;99.90;;;;;;5068941;28;20049;-74
2021/12/26 12:13:48;;;;;;;7.10;4.20;;;-0.90;99.90;;;;;;5071325;28;20064;-73
2021/12/26 12:16:30;;;;;;;7.68;4.68;;;-0.90;99.90;;;;;;5036720;28;20049;-73
2021/12/26 12:19:04;;;;;;;7.72;4.60;;;-0.40;99.90;;;;;;5036413;28;20067;-73
2021/12/26 12:21:45;;;;;;;8.00;4.78;;;-0.90;99.90;;;;;;5054707;28;20045;-73
2021/12/26 12:24:13;;;;;;;8.10;3.90;;;-0.90;99.90;;;;;;5037647;28;20108;-74
2021/12/26 12:26:56;;;;;;;7.97;4.20;;;-0.80;99.90;;;;;;5037378;28;20041;-74
2021/12/26 12:29:25;;;;;;;9.10;4.53;;;-0.70;99.90;;;;;;5039020;28;20395;-73
2021/12/26 12:32:06;;;;;;;9.30;4.50;;;-0.60;99.90;;;;;;5035503;28;20631;-73
2021/12/26 12:34:51;;;;;;;8.48;4.68;;;-0.50;99.90;;;;;;5038201;28;20529;-73
2021/12/26 12:37:40;;;;;;;7.70;4.57;;;-0.30;99.90;;;;;;5036669;28;20562;-73
2021/12/26 12:40:33;;;;;;;10.23;4.60;;;0.00;99.90;;;;;;5019835;28;20124;-73
2021/12/26 12:43:12;;;;;;;7.80;4.47;;;0.00;99.90;;;;;;5071645;28;20102;-73
2021/12/26 12:46:01;;;;;;;7.35;4.60;;;-0.10;99.90;;;;;;5037331;28;20517;-73
2021/12/26 12:48:38;;;;;;;6.28;4.10;;;-0.10;99.90;;;;;;5037917;28;20672;-73
2021/12/26 12:51:16;;;;;;;8.85;4.70;;;0.40;99.90;;;;;;5038607;28;20049;-72
2021/12/26 12:53:49;;;;;;;6.22;4.22;;;0.70;99.90;;;;;;5035558;28;20057;-73
2021/12/26 12:56:44;;;;;;;8.70;4.30;;;0.70;99.90;;;;;;5037724;28;20107;-72
2021/12/26 12:59:13;;;;;;;8.60;4.85;;;0.70;99.90;;;;;;5037064;28;20552;-72